ΕΜΥ, Εθνική Μετεωρολογική Υπηρεσία - Δελτία Καιρού, Προγνώσεις

ΑΕΡΟΝΑΥΤΙΛΙΑ

GREEK AIRPORTS CODES

LGNX 190750Z 35010KT 9999 SCT025 20/13 Q1023=

EUROPEAN AIRPORTS CODES

EPWA 190830Z 14005KT 5000 BR BKN003 09/09 Q1025 BECMG BKN005=